Time;durP1;ratioP1;P1;durP2;ratioP2;P2;SDS_P1;SDS_P2;PMS_P1;PMS_P2;Temp;Humidity;BMP_temperature;BMP_pressure;BME280_temperature;BME280_humidity;BME280_pressure;Samples;Min_cycle;Max_cycle;Signal;HPM_P1;HPM_P2
2023/01/15 00:00:47;;;;;;;;;;;17.00;90.60;;;;;;5096631;28;19966;-79
2023/01/15 00:03:12;;;;;;;;;;;16.90;90.80;;;;;;5096874;28;20186;-79
2023/01/15 00:05:46;;;;;;;;;;;16.90;90.90;;;;;;5094798;28;20473;-79
2023/01/15 00:08:11;;;;;;;;;;;16.90;91.00;;;;;;5096282;28;19911;-79
2023/01/15 00:10:37;;;;;;;;;;;16.80;91.20;;;;;;5096108;28;19918;-79
2023/01/15 00:13:02;;;;;;;;;;;16.80;91.30;;;;;;5096023;28;19930;-79
2023/01/15 00:15:47;;;;;;;;;;;16.80;91.40;;;;;;5095189;28;19905;-79
2023/01/15 00:18:12;;;;;;;;;;;16.70;91.50;;;;;;5096470;28;19934;-79
2023/01/15 00:20:38;;;;;;;;;;;16.70;91.60;;;;;;5095764;28;20285;-78
2023/01/15 00:23:03;;;;;;;;;;;16.70;91.80;;;;;;5096505;28;20359;-79
2023/01/15 00:28:13;;;;;;;;;;;16.60;92.00;;;;;;5094727;28;19969;-79
2023/01/15 00:30:40;;;;;;;;;;;16.60;92.10;;;;;;5094644;28;19916;-79
2023/01/15 00:33:13;;;;;;;;;;;16.60;92.20;;;;;;5094766;28;19919;-79
2023/01/15 00:35:38;;;;;;;;;;;16.50;92.20;;;;;;5093613;28;19908;-79
2023/01/15 00:38:04;;;;;;;;;;;16.50;92.40;;;;;;5093429;28;19924;-79
2023/01/15 00:40:29;;;;;;;;;;;16.50;92.40;;;;;;5093680;28;19908;-78
2023/01/15 00:42:55;;;;;;;;;;;16.40;92.50;;;;;;5094955;28;19908;-79
2023/01/15 00:45:21;;;;;;;;;;;16.40;92.50;;;;;;5095936;28;20200;-79
2023/01/15 00:47:49;;;;;;;;;;;16.40;92.60;;;;;;5096294;28;20461;-80
2023/01/15 00:50:14;;;;;;;;;;;16.40;92.70;;;;;;5095282;28;19969;-80
2023/01/15 00:52:41;;;;;;;;;;;16.30;92.70;;;;;;5095138;28;19912;-79
2023/01/15 00:55:10;;;;;;;;;;;16.30;92.80;;;;;;5095161;28;19908;-80
2023/01/15 00:57:35;;;;;;;;;;;16.30;92.90;;;;;;5093989;28;19948;-78
2023/01/15 01:00:01;;;;;;;;;;;16.30;92.90;;;;;;5095866;28;19919;-78
2023/01/15 01:02:26;;;;;;;;;;;16.30;93.00;;;;;;5094916;28;19962;-79
2023/01/15 01:04:52;;;;;;;;;;;16.30;93.00;;;;;;5094772;28;19908;-78
2023/01/15 01:07:17;;;;;;;;;;;16.20;93.00;;;;;;5094505;28;19912;-78
2023/01/15 01:09:43;;;;;;;;;;;16.20;93.10;;;;;;5094848;28;19931;-78
2023/01/15 01:12:09;;;;;;;;;;;16.20;93.10;;;;;;5093909;28;19945;-78
2023/01/15 01:14:36;;;;;;;;;;;16.20;93.20;;;;;;5093963;28;20529;-78
2023/01/15 01:17:03;;;;;;;;;;;16.10;93.20;;;;;;5094787;28;20007;-79
2023/01/15 01:19:28;;;;;;;;;;;16.10;93.20;;;;;;5094223;28;19954;-78
2023/01/15 01:21:54;;;;;;;;;;;16.10;93.30;;;;;;5094922;28;19989;-78
2023/01/15 01:24:22;;;;;;;;;;;16.10;93.30;;;;;;5094680;28;19915;-78
2023/01/15 01:26:49;;;;;;;;;;;16.10;93.40;;;;;;5094260;28;19922;-78
2023/01/15 01:29:15;;;;;;;;;;;16.00;93.30;;;;;;5095896;28;20284;-78
2023/01/15 01:31:41;;;;;;;;;;;16.00;93.40;;;;;;5095820;28;19919;-78
2023/01/15 01:34:09;;;;;;;;;;;16.00;93.40;;;;;;5096089;28;19908;-77
2023/01/15 01:36:38;;;;;;;;;;;16.00;93.50;;;;;;5095603;28;19921;-78
2023/01/15 01:39:04;;;;;;;;;;;15.90;93.50;;;;;;5096218;28;19912;-79
2023/01/15 01:41:30;;;;;;;;;;;15.90;93.50;;;;;;5096578;28;19943;-78
2023/01/15 01:44:03;;;;;;;;;;;15.90;93.60;;;;;;5095871;28;19958;-78
2023/01/15 01:46:30;;;;;;;;;;;15.90;93.60;;;;;;5095722;28;19916;-79
2023/01/15 01:49:05;;;;;;;;;;;15.90;93.60;;;;;;5099943;28;19912;-79
2023/01/15 01:51:36;;;;;;;;;;;15.90;93.70;;;;;;5099812;28;19991;-78
2023/01/15 01:54:02;;;;;;;;;;;15.80;93.70;;;;;;5099971;28;19919;-79
2023/01/15 01:56:28;;;;;;;;;;;15.80;93.70;;;;;;5099829;28;19909;-78
2023/01/15 01:58:57;;;;;;;;;;;15.80;93.70;;;;;;5100006;28;20010;-78
2023/01/15 02:01:24;;;;;;;;;;;15.80;93.80;;;;;;5099851;28;19908;-79
2023/01/15 02:03:49;;;;;;;;;;;15.70;93.70;;;;;;5100699;28;19908;-78
2023/01/15 02:06:15;;;;;;;;;;;15.70;93.80;;;;;;5099938;28;20207;-79
2023/01/15 02:11:43;;;;;;;;;;;15.70;93.80;;;;;;5100452;28;20316;-79
2023/01/15 02:14:25;;;;;;;;;;;15.70;93.80;;;;;;5100565;28;19908;-78
2023/01/15 02:16:50;;;;;;;;;;;15.70;93.90;;;;;;5100463;28;19923;-79
2023/01/15 02:19:20;;;;;;;;;;;15.60;93.90;;;;;;5088242;28;20007;-78
2023/01/15 02:22:17;;;;;;;;;;;15.60;93.90;;;;;;5099715;28;19914;-78
2023/01/15 02:24:45;;;;;;;;;;;15.60;93.90;;;;;;5098365;28;19919;-79
2023/01/15 02:27:13;;;;;;;;;;;15.60;94.20;;;;;;5097436;28;19908;-78
2023/01/15 02:29:45;;;;;;;;;;;15.60;94.00;;;;;;5095577;28;19916;-78
2023/01/15 02:32:15;;;;;;;;;;;15.60;94.00;;;;;;5097686;28;19961;-78
2023/01/15 02:34:47;;;;;;;;;;;15.50;93.90;;;;;;5099132;28;19962;-78
2023/01/15 02:37:15;;;;;;;;;;;15.50;94.00;;;;;;5098321;28;19912;-78
2023/01/15 02:39:41;;;;;;;;;;;15.50;94.00;;;;;;5098115;28;19916;-78
2023/01/15 02:42:08;;;;;;;;;;;15.50;94.00;;;;;;5098351;28;19908;-78
2023/01/15 02:44:35;;;;;;;;;;;15.50;94.00;;;;;;5098933;28;19969;-79
2023/01/15 02:47:09;;;;;;;;;;;15.50;94.00;;;;;;5098590;28;19999;-78
2023/01/15 02:49:35;;;;;;;;;;;15.40;94.00;;;;;;5098970;28;19922;-78
2023/01/15 02:52:06;;;;;;;;;;;15.40;94.00;;;;;;5099316;28;19915;-78
2023/01/15 02:54:36;;;;;;;;;;;15.40;94.00;;;;;;5099063;28;19912;-78
2023/01/15 02:57:02;;;;;;;;;;;15.40;94.00;;;;;;5099312;28;19951;-78
2023/01/15 02:59:34;;;;;;;;;;;15.40;94.10;;;;;;5097198;28;20312;-78
2023/01/15 03:02:03;;;;;;;;;;;15.40;94.30;;;;;;5097849;28;19940;-79
2023/01/15 03:04:29;;;;;;;;;;;15.40;94.10;;;;;;5097494;28;19908;-78
2023/01/15 03:06:59;;;;;;;;;;;15.40;94.10;;;;;;5096873;28;19915;-78
2023/01/15 03:09:25;;;;;;;;;;;15.30;94.00;;;;;;5096375;28;20204;-78
2023/01/15 03:12:00;;;;;;;;;;;15.30;94.10;;;;;;5096726;28;19973;-78
2023/01/15 03:14:29;;;;;;;;;;;15.30;94.10;;;;;;5097508;28;19915;-78
2023/01/15 03:16:57;;;;;;;;;;;15.30;94.10;;;;;;5097568;28;19908;-78
2023/01/15 03:19:30;;;;;;;;;;;15.30;94.10;;;;;;5097309;28;19915;-78
2023/01/15 03:22:01;;;;;;;;;;;15.30;94.10;;;;;;5097246;28;19995;-78
2023/01/15 03:24:39;;;;;;;;;;;15.20;94.10;;;;;;5096222;28;20064;-78
2023/01/15 03:27:05;;;;;;;;;;;15.20;94.10;;;;;;5097433;28;19919;-78
2023/01/15 03:29:38;;;;;;;;;;;15.20;94.10;;;;;;5097184;28;19923;-78
2023/01/15 03:32:04;;;;;;;;;;;15.20;94.10;;;;;;5097032;28;19912;-78
2023/01/15 03:34:52;;;;;;;;;;;15.20;94.10;;;;;;5097561;28;19910;-78
2023/01/15 03:37:19;;;;;;;;;;;15.20;94.10;;;;;;5096660;28;19908;-78
2023/01/15 03:39:44;;;;;;;;;;;15.10;94.10;;;;;;5098361;28;20507;-78
2023/01/15 03:42:30;;;;;;;;;;;15.10;94.10;;;;;;5097492;28;20341;-78
2023/01/15 03:45:02;;;;;;;;;;;15.10;94.10;;;;;;5097357;28;19999;-79
2023/01/15 03:47:54;;;;;;;;;;;15.10;94.10;;;;;;5095563;28;19916;-78
2023/01/15 03:50:19;;;;;;;;;;;15.10;94.20;;;;;;5096008;28;19908;-78
2023/01/15 03:52:45;;;;;;;;;;;15.00;94.10;;;;;;5096773;28;19908;-78
2023/01/15 03:55:20;;;;;;;;;;;15.30;94.10;;;;;;5097215;28;20171;-78
2023/01/15 03:57:46;;;;;;;;;;;16.10;92.00;;;;;;5097340;28;19915;-78
2023/01/15 04:00:21;;;;;;;;;;;16.70;90.00;;;;;;5097296;28;19908;-78
2023/01/15 04:02:47;;;;;;;;;;;17.10;86.90;;;;;;5098526;28;19969;-78
2023/01/15 04:05:21;;;;;;;;;;;17.40;84.50;;;;;;5097619;28;20285;-78
2023/01/15 04:07:47;;;;;;;;;;;17.80;81.30;;;;;;5097674;28;19926;-78
2023/01/15 04:10:13;;;;;;;;;;;18.10;78.50;;;;;;5096926;28;19938;-79
2023/01/15 04:12:38;;;;;;;;;;;18.40;76.20;;;;;;5097653;28;19908;-78
2023/01/15 04:15:05;;;;;;;;;;;18.50;75.10;;;;;;5097230;28;19912;-78
2023/01/15 04:17:30;;;;;;;;;;;18.60;74.00;;;;;;5097220;28;19915;-78
2023/01/15 04:19:56;;;;;;;;;;;18.70;73.30;;;;;;5097181;28;19908;-77
2023/01/15 04:22:21;;;;;;;;;;;18.70;72.70;;;;;;5098132;28;20276;-79
2023/01/15 04:24:47;;;;;;;;;;;18.90;71.60;;;;;;5097236;28;19908;-79
2023/01/15 04:27:13;;;;;;;;;;;19.10;70.60;;;;;;5097190;28;20285;-79
2023/01/15 04:29:40;;;;;;;;;;;19.20;70.10;;;;;;5097107;28;20131;-79
2023/01/15 04:32:05;;;;;;;;;;;19.30;69.50;;;;;;5096338;28;19916;-79
2023/01/15 04:34:34;;;;;;;;;;;19.30;68.80;;;;;;5097034;28;19939;-78
2023/01/15 04:37:00;;;;;;;;;;;19.30;68.80;;;;;;5097152;28;19919;-78
2023/01/15 04:39:25;;;;;;;;;;;19.30;68.70;;;;;;5097137;28;20003;-79
2023/01/15 04:44:35;;;;;;;;;;;19.40;68.00;;;;;;5097704;28;19977;-78
2023/01/15 04:47:01;;;;;;;;;;;19.50;67.40;;;;;;5097306;28;19918;-78
2023/01/15 04:49:32;;;;;;;;;;;19.60;66.70;;;;;;5097303;28;19912;-78
2023/01/15 04:51:58;;;;;;;;;;;19.60;66.40;;;;;;5096818;28;19947;-78
2023/01/15 04:54:24;;;;;;;;;;;19.60;66.20;;;;;;5096940;28;19939;-79
2023/01/15 04:56:50;;;;;;;;;;;19.60;65.90;;;;;;5096967;28;19924;-78
2023/01/15 04:59:20;;;;;;;;;;;19.70;65.80;;;;;;5096851;28;19908;-78
2023/01/15 05:01:46;;;;;;;;;;;19.60;65.90;;;;;;5096545;28;19908;-79
2023/01/15 05:04:11;;;;;;;;;;;19.50;66.00;;;;;;5095903;28;20324;-78
2023/01/15 05:06:37;;;;;;;;;;;19.50;66.10;;;;;;5096572;28;19915;-78
2023/01/15 05:09:03;;;;;;;;;;;19.40;66.20;;;;;;5096133;28;19923;-78
2023/01/15 05:11:29;;;;;;;;;;;19.40;66.40;;;;;;5096232;28;19908;-78
2023/01/15 05:13:54;;;;;;;;;;;19.30;66.60;;;;;;5095280;28;19919;-77
2023/01/15 05:16:22;;;;;;;;;;;19.20;66.80;;;;;;5095053;28;19919;-78
2023/01/15 05:18:48;;;;;;;;;;;19.20;67.10;;;;;;5095604;28;20325;-79
2023/01/15 05:21:21;;;;;;;;;;;19.00;67.50;;;;;;5096916;28;19943;-79
2023/01/15 05:23:47;;;;;;;;;;;18.90;67.90;;;;;;5099039;28;20241;-79
2023/01/15 05:26:12;;;;;;;;;;;18.80;68.60;;;;;;5099491;28;20278;-79
2023/01/15 05:28:38;;;;;;;;;;;18.70;69.10;;;;;;5099656;28;19985;-79
2023/01/15 05:31:05;;;;;;;;;;;18.60;69.60;;;;;;5099395;28;19912;-79
2023/01/15 05:33:31;;;;;;;;;;;18.50;70.10;;;;;;5099358;28;20401;-79
2023/01/15 05:36:00;;;;;;;;;;;18.40;70.60;;;;;;5100410;28;19959;-79
2023/01/15 05:38:25;;;;;;;;;;;18.30;70.90;;;;;;5100908;28;19973;-79
2023/01/15 05:40:51;;;;;;;;;;;18.30;71.10;;;;;;5100180;28;19908;-79
2023/01/15 05:43:16;;;;;;;;;;;18.40;71.00;;;;;;5099922;28;19955;-79
2023/01/15 05:45:44;;;;;;;;;;;18.40;70.60;;;;;;5100429;28;20026;-79
2023/01/15 05:48:10;;;;;;;;;;;18.50;69.80;;;;;;5100275;28;20185;-79
2023/01/15 05:50:35;;;;;;;;;;;18.70;69.00;;;;;;5101216;28;19908;-79
2023/01/15 05:53:01;;;;;;;;;;;18.90;67.90;;;;;;5100482;28;19908;-79
2023/01/15 05:55:26;;;;;;;;;;;19.00;66.70;;;;;;5100533;28;19916;-79
2023/01/15 05:57:52;;;;;;;;;;;19.20;65.70;;;;;;5100874;28;20053;-79
2023/01/15 06:00:18;;;;;;;;;;;19.20;65.30;;;;;;5100637;28;19908;-79
2023/01/15 06:02:47;;;;;;;;;;;19.30;65.20;;;;;;5100089;28;19908;-79
2023/01/15 06:05:28;;;;;;;;;;;19.30;64.90;;;;;;5099504;28;20274;-79
2023/01/15 06:07:53;;;;;;;;;;;19.30;64.70;;;;;;5099195;28;19913;-79
2023/01/15 06:10:19;;;;;;;;;;;19.30;64.50;;;;;;5099367;28;19960;-80
2023/01/15 06:12:44;;;;;;;;;;;19.30;64.30;;;;;;5099886;28;19982;-80
2023/01/15 06:15:26;;;;;;;;;;;19.30;64.00;;;;;;5099812;28;19912;-80
2023/01/15 06:17:51;;;;;;;;;;;19.40;63.90;;;;;;5099353;28;19935;-80
2023/01/15 06:20:17;;;;;;;;;;;19.40;63.70;;;;;;5098571;28;20236;-80
2023/01/15 06:22:42;;;;;;;;;;;19.40;63.70;;;;;;5100364;28;19908;-80
2023/01/15 06:25:10;;;;;;;;;;;19.40;63.60;;;;;;5098124;28;19919;-80
2023/01/15 06:27:36;;;;;;;;;;;19.30;63.60;;;;;;5098072;28;20003;-79
2023/01/15 06:30:01;;;;;;;;;;;19.40;63.60;;;;;;5097560;28;20015;-79
2023/01/15 06:32:27;;;;;;;;;;;19.30;63.50;;;;;;5096774;28;19908;-80
2023/01/15 06:34:52;;;;;;;;;;;19.30;63.30;;;;;;5098739;28;20376;-80
2023/01/15 06:37:19;;;;;;;;;;;19.30;63.50;;;;;;5098669;28;19908;-79
2023/01/15 06:39:45;;;;;;;;;;;19.30;63.40;;;;;;5097270;28;20307;-79
2023/01/15 06:47:40;;;;;;;;;;;19.20;63.40;;;;;;5097228;28;19919;-79
2023/01/15 06:50:06;;;;;;;;;;;19.20;63.50;;;;;;5096270;28;19912;-79
2023/01/15 06:52:32;;;;;;;;;;;19.20;63.40;;;;;;5094948;28;19908;-79
2023/01/15 06:54:57;;;;;;;;;;;19.10;63.40;;;;;;5094555;28;19908;-80
2023/01/15 06:57:23;;;;;;;;;;;19.20;63.50;;;;;;5096380;28;20389;-80
2023/01/15 06:59:49;;;;;;;;;;;19.20;63.50;;;;;;5097845;28;19908;-80
2023/01/15 07:02:16;;;;;;;;;;;19.20;63.40;;;;;;5097410;28;19961;-80
2023/01/15 07:04:42;;;;;;;;;;;19.20;63.30;;;;;;5097153;28;19908;-80
2023/01/15 07:07:08;;;;;;;;;;;19.10;63.20;;;;;;5097018;28;20008;-79
2023/01/15 07:09:33;;;;;;;;;;;19.10;63.20;;;;;;5097171;28;20014;-79
2023/01/15 07:11:59;;;;;;;;;;;19.10;63.40;;;;;;5097526;28;20270;-79
2023/01/15 07:14:26;;;;;;;;;;;19.10;63.20;;;;;;5096984;28;19919;-79
2023/01/15 07:16:54;;;;;;;;;;;19.10;63.00;;;;;;5097505;28;20011;-79
2023/01/15 07:19:20;;;;;;;;;;;19.10;62.80;;;;;;5097210;28;19961;-79
2023/01/15 07:21:45;;;;;;;;;;;19.10;62.60;;;;;;5097742;28;19916;-79
2023/01/15 07:24:12;;;;;;;;;;;19.20;62.50;;;;;;5097536;28;19915;-79
2023/01/15 07:26:44;;;;;;;;;;;19.10;62.40;;;;;;5097874;28;19908;-79
2023/01/15 07:29:10;;;;;;;;;;;19.10;62.30;;;;;;5097510;28;20400;-79
2023/01/15 07:31:36;;;;;;;;;;;19.10;62.20;;;;;;5096858;28;20011;-79
2023/01/15 07:34:01;;;;;;;;;;;19.10;62.30;;;;;;5097669;28;19919;-79
2023/01/15 07:36:27;;;;;;;;;;;19.10;62.30;;;;;;5096618;28;20174;-78
2023/01/15 07:38:52;;;;;;;;;;;19.20;62.00;;;;;;5097861;28;19908;-79
2023/01/15 07:49:47;;;;;;;;;;;19.20;61.50;;;;;;5097559;28;20217;-79
2023/01/15 07:52:14;;;;;;;;;;;19.20;61.20;;;;;;5076521;28;19963;-79
2023/01/15 07:54:40;;;;;;;;;;;19.10;61.00;;;;;;5076505;28;20201;-79
2023/01/15 07:57:06;;;;;;;;;;;19.10;61.00;;;;;;5076477;28;19908;-79
2023/01/15 07:59:32;;;;;;;;;;;19.20;60.70;;;;;;5077478;28;20016;-79
2023/01/15 08:01:57;;;;;;;;;;;19.20;60.40;;;;;;5077263;28;19915;-79
2023/01/15 08:04:23;;;;;;;;;;;19.30;60.30;;;;;;5076657;28;19919;-79
2023/01/15 08:06:49;;;;;;;;;;;19.30;60.10;;;;;;5076915;28;19919;-79
2023/01/15 08:09:14;;;;;;;;;;;19.30;59.80;;;;;;5077671;28;19927;-79
2023/01/15 08:17:15;;;;;;;;;;;19.30;59.70;;;;;;5076971;28;19927;-79
2023/01/15 08:19:41;;;;;;;;;;;19.30;59.60;;;;;;5076674;28;19908;-79
2023/01/15 08:22:12;;;;;;;;;;;19.30;59.60;;;;;;5076527;28;20163;-79
2023/01/15 08:24:37;;;;;;;;;;;19.40;59.40;;;;;;5092863;28;19909;-79
2023/01/15 08:27:03;;;;;;;;;;;19.40;59.40;;;;;;5093170;28;20231;-79
2023/01/15 08:29:42;;;;;;;;;;;19.40;59.30;;;;;;5076180;28;19916;-79
2023/01/15 08:32:07;;;;;;;;;;;19.40;59.30;;;;;;5075777;28;20485;-79
2023/01/15 08:34:33;;;;;;;;;;;19.40;59.30;;;;;;5092535;28;20003;-79
2023/01/15 08:36:59;;;;;;;;;;;19.30;59.20;;;;;;5076242;28;19919;-79
2023/01/15 08:39:25;;;;;;;;;;;19.30;59.20;;;;;;5075645;28;19909;-79
2023/01/15 08:41:51;;;;;;;;;;;19.30;59.20;;;;;;5074460;28;19913;-79
2023/01/15 08:44:16;;;;;;;;;;;19.30;59.20;;;;;;5076117;28;19916;-79
2023/01/15 08:46:42;;;;;;;;;;;19.30;59.20;;;;;;5092151;28;19919;-79
2023/01/15 08:49:14;;;;;;;;;;;19.30;59.10;;;;;;5075581;28;20423;-79
2023/01/15 08:51:40;;;;;;;;;;;19.20;59.00;;;;;;5076454;28;19908;-79
2023/01/15 08:54:06;;;;;;;;;;;19.30;59.00;;;;;;5075769;28;20286;-79
2023/01/15 08:56:31;;;;;;;;;;;19.20;59.10;;;;;;5077456;28;20078;-79
2023/01/15 08:58:57;;;;;;;;;;;19.20;59.10;;;;;;5079591;28;19944;-79
2023/01/15 09:01:22;;;;;;;;;;;19.20;59.10;;;;;;5079474;28;19908;-79
2023/01/15 09:03:48;;;;;;;;;;;19.20;59.00;;;;;;5096406;28;19995;-78
2023/01/15 09:06:14;;;;;;;;;;;19.20;59.00;;;;;;5079629;28;19909;-79
2023/01/15 09:08:42;;;;;;;;;;;19.20;59.00;;;;;;5079564;28;19962;-79
2023/01/15 09:11:08;;;;;;;;;;;19.30;59.00;;;;;;5078769;28;20368;-79
2023/01/15 09:13:35;;;;;;;;;;;19.20;59.00;;;;;;5078918;28;19908;-79
2023/01/15 09:16:04;;;;;;;;;;;19.20;59.10;;;;;;5080032;28;19909;-79
2023/01/15 09:18:30;;;;;;;;;;;19.20;59.10;;;;;;5079102;28;20022;-79
2023/01/15 09:20:55;;;;;;;;;;;19.30;59.20;;;;;;5079704;28;20286;-79
2023/01/15 09:23:21;;;;;;;;;;;19.20;59.10;;;;;;5079786;28;19908;-79
2023/01/15 09:25:57;;;;;;;;;;;19.20;59.10;;;;;;5079043;28;19919;-78
2023/01/15 09:28:22;;;;;;;;;;;19.20;59.10;;;;;;5077854;28;20015;-79
2023/01/15 09:30:48;;;;;;;;;;;19.20;59.20;;;;;;5079262;28;20003;-79
2023/01/15 09:33:14;;;;;;;;;;;19.20;59.10;;;;;;5079517;28;19978;-79
2023/01/15 09:35:40;;;;;;;;;;;19.10;59.20;;;;;;5078320;28;19930;-79
2023/01/15 09:38:05;;;;;;;;;;;19.00;59.40;;;;;;5077273;28;19978;-79
2023/01/15 09:40:49;;;;;;;;;;;18.80;59.60;;;;;;5077377;28;19923;-79
2023/01/15 09:43:15;;;;;;;;;;;18.70;60.20;;;;;;5093295;28;19908;-79
2023/01/15 09:45:43;;;;;;;;;;;18.80;60.30;;;;;;5093332;28;20012;-78
2023/01/15 09:48:14;;;;;;;;;;;19.10;59.70;;;;;;5094198;28;19912;-79
2023/01/15 09:50:52;;;;;;;;;;;19.50;59.40;;;;;;5094096;28;19916;-79
2023/01/15 09:53:22;;;;;;;;;;;19.90;58.60;;;;;;5094593;28;20328;-79
2023/01/15 09:55:49;;;;;;;;;;;20.50;57.20;;;;;;5077956;28;19918;-78
2023/01/15 09:58:17;;;;;;;;;;;20.90;56.30;;;;;;5076351;28;19909;-79
2023/01/15 10:00:44;;;;;;;;;;;21.00;55.90;;;;;;5074926;28;19919;-79
2023/01/15 10:03:28;;;;;;;;;;;21.00;55.80;;;;;;5075506;28;19912;-79
2023/01/15 10:06:00;;;;;;;;;;;20.90;55.80;;;;;;5077239;28;20024;-79
2023/01/15 10:08:59;;;;;;;;;;;20.80;55.90;;;;;;5092317;28;20417;-79
2023/01/15 10:12:34;;;;;;;;;;;20.70;55.90;;;;;;5066246;28;19962;-79
2023/01/15 10:14:20;;;;;;;;;;;20.70;56.00;;;;;;5078643;28;19919;-79
2023/01/15 10:16:45;;;;;;;;;;;20.60;56.60;;;;;;5078573;28;20023;-80
2023/01/15 10:19:11;;;;;;;;;;;20.60;56.80;;;;;;5078637;28;20000;-80
2023/01/15 10:21:46;;;;;;;;;;;20.60;56.90;;;;;;5078392;28;20003;-79
2023/01/15 10:24:42;;;;;;;;;;;20.60;57.10;;;;;;5078615;28;19987;-79
2023/01/15 10:27:18;;;;;;;;;;;20.40;57.30;;;;;;5072465;28;19962;-80
2023/01/15 10:29:45;;;;;;;;;;;20.20;57.80;;;;;;5077533;28;19924;-79
2023/01/15 10:32:31;;;;;;;;;;;20.00;58.00;;;;;;5094383;28;19936;-79
2023/01/15 10:35:04;;;;;;;;;;;19.90;58.20;;;;;;5094059;28;19909;-79
2023/01/15 10:37:40;;;;;;;;;;;19.80;58.50;;;;;;5093062;28;19917;-78
2023/01/15 10:40:32;;;;;;;;;;;19.60;58.70;;;;;;5076889;28;20339;-79
2023/01/15 10:43:01;;;;;;;;;;;19.40;59.10;;;;;;5097890;28;19908;-79
2023/01/15 10:45:29;;;;;;;;;;;19.30;59.30;;;;;;5097858;28;19912;-78
2023/01/15 10:47:58;;;;;;;;;;;19.20;59.40;;;;;;5105517;28;19916;-79
2023/01/15 10:50:25;;;;;;;;;;;19.20;59.50;;;;;;5118234;28;20346;-80
2023/01/15 10:52:56;;;;;;;;;;;19.10;59.50;;;;;;5117238;28;19907;-79
2023/01/15 10:55:28;;;;;;;;;;;19.10;59.50;;;;;;5117000;28;19921;-79
2023/01/15 10:58:10;;;;;;;;;;;19.00;59.50;;;;;;5117589;28;19908;-79
2023/01/15 11:00:35;;;;;;;;;;;19.00;59.40;;;;;;5116408;28;20311;-79
2023/01/15 11:03:07;;;;;;;;;;;19.10;59.30;;;;;;5118159;28;19908;-79
2023/01/15 11:05:33;;;;;;;;;;;19.10;59.20;;;;;;5117021;28;19907;-78
2023/01/15 11:08:03;;;;;;;;;;;19.10;59.00;;;;;;5116911;28;19915;-79
2023/01/15 11:10:30;;;;;;;;;;;19.20;58.90;;;;;;5115803;28;19908;-78
2023/01/15 11:21:24;;;;;;;;;;;19.30;58.20;;;;;;5115562;28;19915;-79
2023/01/15 11:23:50;;;;;;;;;;;19.40;58.00;;;;;;5115984;28;19915;-79
2023/01/15 11:26:18;;;;;;;;;;;19.40;57.80;;;;;;5113466;28;19938;-79
2023/01/15 11:28:45;;;;;;;;;;;19.40;57.70;;;;;;5115157;28;19911;-79
2023/01/15 11:31:11;;;;;;;;;;;19.40;57.60;;;;;;5115634;28;19965;-79
2023/01/15 11:33:37;;;;;;;;;;;19.40;57.60;;;;;;5116986;28;20388;-79
2023/01/15 11:36:05;;;;;;;;;;;19.40;57.50;;;;;;5117390;28;19907;-78
2023/01/15 11:38:43;;;;;;;;;;;19.40;57.40;;;;;;5117033;28;19907;-79
2023/01/15 11:52:49;;;;;;;;;;;19.60;57.10;;;;;;5114460;28;19954;-78
2023/01/15 11:55:18;;;;;;;;;;;19.60;57.00;;;;;;5116603;28;19939;-80
2023/01/15 11:57:45;;;;;;;;;;;19.60;56.80;;;;;;5116020;28;19912;-79
2023/01/15 12:00:21;;;;;;;;;;;19.40;57.00;;;;;;5115347;28;19973;-79
2023/01/15 12:02:51;;;;;;;;;;;19.30;57.10;;;;;;5115519;28;19916;-79
2023/01/15 12:05:18;;;;;;;;;;;19.30;57.40;;;;;;5116291;28;19919;-79
2023/01/15 12:07:45;;;;;;;;;;;19.30;57.50;;;;;;5114326;28;20357;-79
2023/01/15 12:11:02;;;;;;;;;;;19.30;57.40;;;;;;5114468;28;19918;-79
2023/01/15 12:13:26;;;;;;;;;;;19.20;57.40;;;;;;5116363;28;19922;-79
2023/01/15 12:16:10;;;;;;;;;;;19.20;57.30;;;;;;5116452;28;19912;-78
2023/01/15 12:18:43;;;;;;;;;;;19.20;57.30;;;;;;5116351;28;20003;-79
2023/01/15 12:21:20;;;;;;;;;;;19.20;57.20;;;;;;5115788;28;19969;-80
2023/01/15 12:23:48;;;;;;;;;;;19.20;57.20;;;;;;5115829;28;19934;-79
2023/01/15 12:26:28;;;;;;;;;;;19.20;57.20;;;;;;5115911;28;19908;-79
2023/01/15 12:29:03;;;;;;;;;;;19.20;57.20;;;;;;5115424;28;19923;-79
2023/01/15 12:31:44;;;;;;;;;;;19.20;57.20;;;;;;5105426;28;19926;-79
2023/01/15 12:34:35;;;;;;;;;;;19.20;57.10;;;;;;5095898;28;19908;-80
2023/01/15 12:37:08;;;;;;;;;;;19.20;57.00;;;;;;5095762;28;19920;-79
2023/01/15 12:39:45;;;;;;;;;;;19.20;57.10;;;;;;5094169;28;20056;-80
2023/01/15 12:45:03;;;;;;;;;;;19.10;57.20;;;;;;5095777;28;19915;-79
2023/01/15 12:47:47;;;;;;;;;;;19.10;57.10;;;;;;5094842;28;19916;-80
2023/01/15 12:50:19;;;;;;;;;;;19.20;57.00;;;;;;5094749;28;19912;-80
2023/01/15 12:52:49;;;;;;;;;;;19.20;56.80;;;;;;5095501;28;19919;-80
2023/01/15 12:55:18;;;;;;;;;;;19.20;56.90;;;;;;5095554;28;19908;-79
2023/01/15 12:57:47;;;;;;;;;;;19.20;57.20;;;;;;5095574;28;19908;-79
2023/01/15 13:00:18;;;;;;;;;;;19.20;56.80;;;;;;5095838;28;19919;-79
2023/01/15 13:02:50;;;;;;;;;;;19.20;56.70;;;;;;5093641;28;19918;-79
2023/01/15 13:05:21;;;;;;;;;;;19.30;56.70;;;;;;5093976;28;20026;-79
2023/01/15 13:07:49;;;;;;;;;;;19.30;56.70;;;;;;5095069;28;20002;-79
2023/01/15 13:10:19;;;;;;;;;;;19.30;56.50;;;;;;5095929;28;19947;-79
2023/01/15 13:12:44;;;;;;;;;;;19.50;56.20;;;;;;5094545;28;19985;-78
2023/01/15 13:15:17;;;;;;;;;;;19.60;55.90;;;;;;5096049;28;20234;-79
2023/01/15 13:17:51;;;;;;;;;;;19.60;55.80;;;;;;5096367;28;19985;-79
2023/01/15 13:20:35;;;;;;;;;;;19.70;55.60;;;;;;5096307;28;19911;-79
2023/01/15 13:23:19;;;;;;;;;;;19.80;55.40;;;;;;5095395;28;20009;-79
2023/01/15 13:25:57;;;;;;;;;;;19.70;55.40;;;;;;5095256;28;20196;-79
2023/01/15 13:28:28;;;;;;;;;;;19.60;55.50;;;;;;5094847;28;19977;-79
2023/01/15 13:31:09;;;;;;;;;;;19.60;55.60;;;;;;5095288;28;20383;-79
2023/01/15 13:33:38;;;;;;;;;;;19.50;55.60;;;;;;5096108;28;19908;-79
2023/01/15 13:36:18;;;;;;;;;;;19.40;55.70;;;;;;5096272;28;20242;-79
2023/01/15 13:38:45;;;;;;;;;;;19.40;55.90;;;;;;5096252;28;19916;-79
2023/01/15 13:41:15;;;;;;;;;;;19.30;56.20;;;;;;5096227;28;19935;-79
2023/01/15 13:43:42;;;;;;;;;;;19.20;56.50;;;;;;5097522;28;19916;-79
2023/01/15 13:46:11;;;;;;;;;;;19.20;56.70;;;;;;5097577;28;19908;-80
2023/01/15 13:48:36;;;;;;;;;;;19.20;56.80;;;;;;5098364;28;19977;-80
2023/01/15 13:51:04;;;;;;;;;;;19.20;56.90;;;;;;5099230;28;19916;-79
2023/01/15 13:53:37;;;;;;;;;;;19.10;56.90;;;;;;5098355;28;19908;-79
2023/01/15 13:56:08;;;;;;;;;;;19.00;57.10;;;;;;5097776;28;19912;-79
2023/01/15 13:58:36;;;;;;;;;;;18.90;57.40;;;;;;5098164;28;20331;-80
2023/01/15 14:01:19;;;;;;;;;;;18.80;57.60;;;;;;5096050;28;20346;-80
2023/01/15 14:03:57;;;;;;;;;;;18.70;57.80;;;;;;5095751;28;19908;-79
2023/01/15 14:06:34;;;;;;;;;;;18.50;57.90;;;;;;5095452;28;19939;-80
2023/01/15 14:08:59;;;;;;;;;;;18.40;58.10;;;;;;5096057;28;19922;-79
2023/01/15 14:11:41;;;;;;;;;;;18.20;58.50;;;;;;5097515;28;19916;-79
2023/01/15 14:14:09;;;;;;;;;;;18.10;58.80;;;;;;5097284;28;19920;-79
2023/01/15 14:16:42;;;;;;;;;;;18.00;59.00;;;;;;5095678;28;19940;-81
2023/01/15 14:19:31;;;;;;;;;;;18.00;58.90;;;;;;5096326;28;19908;-80
2023/01/15 14:22:08;;;;;;;;;;;18.10;58.80;;;;;;5096761;28;19912;-80
2023/01/15 14:24:45;;;;;;;;;;;18.30;58.40;;;;;;5096457;28;19909;-79
2023/01/15 14:27:13;;;;;;;;;;;18.70;57.70;;;;;;5097274;28;19912;-79
2023/01/15 14:29:45;;;;;;;;;;;19.00;57.20;;;;;;5097275;28;19916;-80
2023/01/15 14:32:11;;;;;;;;;;;19.10;56.70;;;;;;5097340;28;19916;-80
2023/01/15 14:34:36;;;;;;;;;;;19.20;56.60;;;;;;5097233;28;19969;-80
2023/01/15 14:37:06;;;;;;;;;;;19.20;56.60;;;;;;5099161;28;19919;-79
2023/01/15 14:39:38;;;;;;;;;;;19.20;56.50;;;;;;5097651;28;19909;-79
2023/01/15 14:45:07;;;;;;;;;;;19.30;56.30;;;;;;5097166;28;19958;-79
2023/01/15 14:47:53;;;;;;;;;;;19.40;56.10;;;;;;5095577;28;19914;-79
2023/01/15 14:50:32;;;;;;;;;;;19.40;55.80;;;;;;5095817;28;19912;-80
2023/01/15 14:53:04;;;;;;;;;;;19.60;55.80;;;;;;5095093;28;19908;-79
2023/01/15 14:55:30;;;;;;;;;;;19.60;55.60;;;;;;5091423;28;19916;-79
2023/01/15 14:57:59;;;;;;;;;;;19.60;55.60;;;;;;5092341;28;19915;-78
2023/01/15 15:00:28;;;;;;;;;;;19.60;55.60;;;;;;5094744;28;19923;-80
2023/01/15 15:02:54;;;;;;;;;;;19.50;55.70;;;;;;5096523;28;20001;-79
2023/01/15 15:05:21;;;;;;;;;;;19.50;55.90;;;;;;5095863;28;20258;-80
2023/01/15 15:07:51;;;;;;;;;;;19.40;55.90;;;;;;5094659;28;20609;-79
2023/01/15 15:10:20;;;;;;;;;;;19.40;55.90;;;;;;5095123;28;19919;-79
2023/01/15 15:13:01;;;;;;;;;;;19.30;55.90;;;;;;5094037;28;19919;-79
2023/01/15 15:15:27;;;;;;;;;;;19.30;56.00;;;;;;5092062;28;19912;-79
2023/01/15 15:17:59;;;;;;;;;;;19.10;56.20;;;;;;5091684;28;19909;-79
2023/01/15 15:20:46;;;;;;;;;;;19.00;56.30;;;;;;5093498;28;19931;-80
2023/01/15 15:23:35;;;;;;;;;;;19.00;56.30;;;;;;5082242;28;19912;-79